McAlister, NM (88427)

1:26 PM MDT on May 29, 2015 (GMT -0600)
Tucumcari Municipal | | Change Station
CLOSE
Current Station
Airport
Location: Tucumcari,
Elevation: 4065 ft
Nearby Weather Stations

Elev 4065 ft 35.18 °N, 103.60 °W | Updated 33 minutes ago

Clear
Clear
77 °F
Feels Like 77 °F
N
10
Wind Variable Wind from NNE
Gusts 16 mph

Today
High -- | Low -- °F
--% Chance of Precip.
Yesterday
High -- | Low -- °F
Precip. -- in
5:43 AM 8:00 PM
Waxing Gibbous, 85% visible
Pressure 29.94 in
Visibility 10.0 miles
Clouds Few 4700 ft
Dew Point 53 °F
Humidity 43%
Rainfall 0.00 in
Snow Depth Not available.
UV 12 out of 12
Pollen 5.40 out of 12
Air Quality Not available.
Flu Activity Local Activity
METAR KTCC 291853Z AUTO 02009G14KT 10SM FEW047 25/12 A3008 RMK AO2 SLP136 T02500117

More Conditions Fewer Conditions

Pressure 29.94 in
Visibility 10.0 miles
Clouds Few 4700 ft
Dew Point 53 °F
Humidity 43%
Rainfall 0.00 in
Snow Depth Not available.
UV 12 out of 12
Pollen 5.40 out of 12
Air Quality Not available.
Flu Activity Local Activity
METAR KTCC 291853Z AUTO 02009G14KT 10SM FEW047 25/12 A3008 RMK AO2 SLP136 T02500117

More Conditions Fewer Conditions

Nowcast | as of 1:02 PM MDT on May 29, 2015

Through 3 PM MDT...isolated thunderstorms will continue to develop across the Sangre de Cristo Mountains and nearby Highlands then move slowly to the east or southeast across the northeast and east Central Plains. Expect moderate rain with brief heavy downpours to produce amounts ranging from one quarter to one half inch. In addition...frequent lightning...small hail and wind gusts to near 45 mph are possible with this activity. Stronger storms are possible by late afternoon.

×

10-Day Weather Forecast

Almanac

Astronomy

May. 29, 2015 Rise Set
Actual Time
Civil Twilight
Nautical Twilight
Astronomical Twilight
Moon
Length of Visible Light
Length of Day
Tomorrow will be .
, % of the Moon is Illuminated

Today's Extremes

State Highs State Lows

Community

WunderPhotos

Upload Photos

1,825,330 photos uploaded!

WunderBlogs® & News

Nearby

Air Quality

  Air Quality AQ Index Pollutant
Not available.

Snow Depth

Station Depth Elevation

Earthquake Activity

City Distance Mag. Time & Date
Minimum magnitude displayed is 2.5.

Coastal Water Temperatures

Place Temperature

Stations

Nearby Weather Stations

Station Location Temp. Windchill Dew Point Humidity Wind Precip. Elev Updated Type